createdAt,value
2019-02-17T00:02:19.380Z,100.00
2019-02-17T00:05:09.554Z,100.00
2019-02-17T00:08:00.724Z,100.00
2019-02-17T00:10:50.838Z,100.00
2019-02-17T00:13:40.743Z,100.00
2019-02-17T00:16:30.492Z,100.00
2019-02-17T00:19:20.301Z,100.00
2019-02-17T00:22:10.941Z,100.00
2019-02-17T00:25:00.855Z,99.91
2019-02-17T00:27:50.920Z,99.77
2019-02-17T00:30:40.918Z,99.69
2019-02-17T00:33:30.992Z,99.81
2019-02-17T00:36:20.499Z,100.00
2019-02-17T00:39:09.812Z,100.00
2019-02-17T00:41:59.474Z,100.00
2019-02-17T00:44:51.772Z,100.00
2019-02-17T00:47:41.421Z,100.00
2019-02-17T00:50:30.975Z,100.00
2019-02-17T00:53:20.706Z,100.00
2019-02-17T00:56:10.584Z,100.00
2019-02-17T00:59:09.342Z,100.00
2019-02-17T01:01:50.859Z,100.00
2019-02-17T01:04:42.717Z,100.00
2019-02-17T01:07:32.188Z,100.00
2019-02-17T01:10:21.449Z,100.00
2019-02-17T01:13:11.034Z,100.00
2019-02-17T01:16:00.385Z,100.00
2019-02-17T01:18:49.949Z,100.00
2019-02-17T01:21:39.264Z,100.00
2019-02-17T01:24:29.296Z,100.00
2019-02-17T01:27:18.619Z,100.00
2019-02-17T01:30:11.149Z,100.00
2019-02-17T01:33:00.353Z,100.00
2019-02-17T01:35:49.873Z,100.00
2019-02-17T01:38:39.658Z,100.00
2019-02-17T01:41:29.342Z,100.00
2019-02-17T01:44:18.585Z,100.00
2019-02-17T01:47:07.931Z,100.00
2019-02-17T01:49:57.470Z,100.00
2019-02-17T01:52:47.037Z,100.00
2019-02-17T01:55:36.801Z,100.00
2019-02-17T01:58:26.139Z,100.00
2019-02-17T02:01:17.218Z,100.00
2019-02-17T02:04:06.629Z,100.00
2019-02-17T02:06:55.998Z,100.00
2019-02-17T02:09:45.464Z,100.00
2019-02-17T02:12:34.960Z,100.00
2019-02-17T02:15:24.239Z,100.00
2019-02-17T02:18:13.961Z,100.00
2019-02-17T02:21:04.766Z,100.00
2019-02-17T02:23:54.226Z,100.00
2019-02-17T02:26:43.447Z,100.00
2019-02-17T02:29:40.727Z,100.00
2019-02-17T02:32:23.593Z,100.00
2019-02-17T02:35:13.768Z,100.00
2019-02-17T02:38:03.026Z,100.00
2019-02-17T02:40:52.230Z,100.00
2019-02-17T02:43:41.539Z,100.00
2019-02-17T02:46:31.190Z,100.00
2019-02-17T02:49:20.399Z,100.00
2019-02-17T02:52:09.918Z,100.00
2019-02-17T02:54:59.194Z,100.00
2019-02-17T02:57:48.811Z,100.00
2019-02-17T03:00:39.571Z,100.00
2019-02-17T03:03:29.115Z,100.00
2019-02-17T03:06:49.848Z,100.00
2019-02-17T03:09:39.764Z,100.00
2019-02-17T03:12:29.895Z,100.00
2019-02-17T03:15:19.431Z,100.00
2019-02-17T03:18:08.602Z,100.00
2019-02-17T03:20:58.134Z,100.00
2019-02-17T03:23:47.389Z,100.00
2019-02-17T03:26:36.916Z,100.00
2019-02-17T03:29:26.862Z,100.00
2019-02-17T03:32:16.096Z,100.00
2019-02-17T03:35:05.518Z,100.00
2019-02-17T03:37:56.754Z,100.00
2019-02-17T03:40:46.199Z,100.00
2019-02-17T03:43:35.843Z,100.00
2019-02-17T03:46:25.275Z,100.00
2019-02-17T03:49:14.822Z,100.00
2019-02-17T03:52:04.145Z,100.00
2019-02-17T03:54:53.724Z,100.00
2019-02-17T03:57:43.616Z,100.00
2019-02-17T04:00:33.221Z,100.00
2019-02-17T04:03:22.267Z,100.00
2019-02-17T04:06:11.830Z,100.00
2019-02-17T04:09:05.874Z,100.00
2019-02-17T04:11:55.236Z,100.00
2019-02-17T04:14:44.733Z,100.00
2019-02-17T04:17:34.238Z,100.00
2019-02-17T04:20:24.028Z,100.00
2019-02-17T04:23:14.853Z,100.00
2019-02-17T04:26:04.529Z,100.00
2019-02-17T04:28:53.907Z,100.00
2019-02-17T04:31:43.471Z,100.00
2019-02-17T04:34:32.777Z,100.00
2019-02-17T04:37:22.423Z,100.00
2019-02-17T04:40:11.736Z,100.00
2019-02-17T04:43:02.027Z,100.00
2019-02-17T04:45:56.152Z,100.00
2019-02-17T04:48:45.243Z,100.00
2019-02-17T04:51:34.577Z,100.00
2019-02-17T04:54:23.793Z,100.00
2019-02-17T04:57:13.365Z,100.00
2019-02-17T05:00:02.959Z,100.00
2019-02-17T05:02:52.460Z,100.00
2019-02-17T05:05:42.030Z,100.00
2019-02-17T05:08:31.450Z,100.00
2019-02-17T05:11:20.857Z,100.00
2019-02-17T05:14:10.114Z,100.00
2019-02-17T05:16:59.585Z,100.00
2019-02-17T05:19:49.279Z,100.00
2019-02-17T05:22:39.586Z,100.00
2019-02-17T05:25:30.712Z,100.00
2019-02-17T05:28:20.068Z,100.00
2019-02-17T05:31:09.956Z,100.00
2019-02-17T05:33:59.333Z,100.00
2019-02-17T05:36:48.887Z,100.00
2019-02-17T05:39:38.417Z,100.00
2019-02-17T05:42:28.042Z,100.00
2019-02-17T05:45:17.533Z,100.00
2019-02-17T05:48:07.553Z,100.00
2019-02-17T05:50:57.249Z,100.00
2019-02-17T05:53:46.873Z,100.00
2019-02-17T05:56:36.191Z,100.00
2019-02-17T05:59:25.754Z,100.00
2019-02-17T06:02:14.975Z,100.00
2019-02-17T06:05:04.921Z,100.00
2019-02-17T06:07:56.043Z,100.00
2019-02-17T06:10:45.433Z,100.00
2019-02-17T06:13:34.671Z,100.00
2019-02-17T06:16:24.268Z,100.00
2019-02-17T06:19:13.608Z,100.00
2019-02-17T06:22:03.196Z,100.00
2019-02-17T06:24:52.819Z,100.00
2019-02-17T06:27:42.490Z,100.00
2019-02-17T06:30:32.084Z,100.00
2019-02-17T06:33:21.435Z,100.00
2019-02-17T06:36:10.857Z,100.00
2019-02-17T06:39:00.117Z,100.00
2019-02-17T06:41:49.654Z,100.00
2019-02-17T06:44:39.624Z,100.00
2019-02-17T06:47:34.800Z,100.00
2019-02-17T06:50:24.172Z,100.00
2019-02-17T06:53:13.472Z,100.00
2019-02-17T06:56:09.503Z,100.00
2019-02-17T06:58:58.702Z,100.00
2019-02-17T07:01:48.124Z,100.00
2019-02-17T07:04:59.450Z,100.00
2019-02-17T07:07:49.284Z,99.76
2019-02-17T07:10:39.951Z,99.89
2019-02-17T07:13:29.185Z,98.92
2019-02-17T07:16:20.039Z,98.30
2019-02-17T07:19:10.798Z,98.21
2019-02-17T07:22:00.034Z,98.37
2019-02-17T07:24:49.225Z,98.31
2019-02-17T07:27:38.721Z,98.27
2019-02-17T07:30:27.923Z,98.10
2019-02-17T07:33:17.612Z,97.20
2019-02-17T07:36:06.905Z,96.89
2019-02-17T07:38:57.208Z,96.27
2019-02-17T07:41:48.969Z,95.14
2019-02-17T07:44:40.465Z,94.85
2019-02-17T07:47:32.786Z,94.06
2019-02-17T07:50:22.495Z,93.69
2019-02-17T07:53:12.485Z,93.16
2019-02-17T07:56:01.766Z,92.87
2019-02-17T07:58:50.995Z,92.63
2019-02-17T08:01:45.278Z,92.39
2019-02-17T08:04:31.683Z,92.02
2019-02-17T08:07:20.904Z,91.07
2019-02-17T08:10:10.515Z,90.20
2019-02-17T08:12:59.803Z,89.88
2019-02-17T08:15:49.424Z,89.15
2019-02-17T08:18:38.849Z,88.07
2019-02-17T08:21:28.535Z,87.95
2019-02-17T08:24:17.860Z,87.15
2019-02-17T08:27:07.269Z,85.72
2019-02-17T08:29:56.703Z,84.85
2019-02-17T08:32:46.178Z,85.55
2019-02-17T08:35:38.275Z,86.38
2019-02-17T08:38:27.610Z,85.94
2019-02-17T08:41:17.394Z,85.70
2019-02-17T08:44:09.672Z,84.81
2019-02-17T08:46:59.479Z,82.06
2019-02-17T08:49:49.082Z,81.63
2019-02-17T08:52:38.687Z,81.81
2019-02-17T08:55:28.284Z,80.25
2019-02-17T08:58:17.669Z,78.63
2019-02-17T09:01:07.806Z,78.50
2019-02-17T09:03:59.157Z,76.76
2019-02-17T09:06:48.599Z,76.10
2019-02-17T09:09:38.251Z,76.31
2019-02-17T09:12:27.763Z,75.01
2019-02-17T09:15:17.273Z,74.11
2019-02-17T09:18:06.524Z,73.87
2019-02-17T09:20:56.076Z,73.57
2019-02-17T09:23:45.618Z,72.18
2019-02-17T09:26:35.022Z,72.17
2019-02-17T09:29:24.704Z,72.38
2019-02-17T09:32:16.678Z,70.40
2019-02-17T09:35:05.334Z,71.29
2019-02-17T09:37:54.617Z,71.09
2019-02-17T09:40:44.210Z,71.14
2019-02-17T09:43:33.942Z,71.59
2019-02-17T09:46:23.463Z,71.71
2019-02-17T09:49:12.983Z,71.29
2019-02-17T09:52:02.273Z,70.52
2019-02-17T09:54:52.009Z,70.57
2019-02-17T09:57:41.554Z,69.71
2019-02-17T10:00:31.164Z,69.41
2019-02-17T10:03:20.900Z,69.85
2019-02-17T10:06:10.734Z,69.59
2019-02-17T10:09:00.425Z,68.51
2019-02-17T10:11:49.735Z,68.91
2019-02-17T10:14:39.437Z,68.26
2019-02-17T10:17:28.810Z,66.68
2019-02-17T10:20:18.190Z,66.24
2019-02-17T10:23:07.952Z,65.75
2019-02-17T10:25:57.411Z,65.12
2019-02-17T10:28:47.150Z,63.13
2019-02-17T10:31:36.606Z,63.44
2019-02-17T10:34:25.946Z,62.52
2019-02-17T10:37:16.298Z,63.47
2019-02-17T10:40:06.996Z,63.25
2019-02-17T10:42:56.534Z,63.97
2019-02-17T10:45:45.951Z,64.45
2019-02-17T10:48:35.598Z,63.13
2019-02-17T10:51:26.532Z,63.53
2019-02-17T10:54:18.342Z,61.36
2019-02-17T10:57:07.930Z,61.28
2019-02-17T10:59:57.489Z,59.76
2019-02-17T11:02:47.729Z,59.76
2019-02-17T11:05:39.288Z,58.95
2019-02-17T11:08:28.589Z,58.79
2019-02-17T11:11:20.500Z,59.24
2019-02-17T11:14:09.807Z,57.24
2019-02-17T11:16:59.825Z,57.20
2019-02-17T11:19:49.119Z,55.99
2019-02-17T11:22:38.773Z,57.59
2019-02-17T11:25:28.316Z,56.15
2019-02-17T11:28:17.788Z,56.06
2019-02-17T11:31:07.326Z,53.99
2019-02-17T11:33:57.050Z,54.44
2019-02-17T11:36:46.955Z,54.45
2019-02-17T11:39:36.378Z,53.19
2019-02-17T11:42:26.095Z,52.89
2019-02-17T11:45:16.670Z,54.23
2019-02-17T11:48:06.414Z,53.73
2019-02-17T11:50:56.044Z,51.21
2019-02-17T11:53:45.721Z,51.67
2019-02-17T11:56:36.529Z,52.25
2019-02-17T11:59:26.053Z,51.38
2019-02-17T12:02:24.614Z,52.63
2019-02-17T12:05:07.301Z,50.42
2019-02-17T12:07:56.845Z,49.33
2019-02-17T12:10:46.133Z,49.90
2019-02-17T12:13:36.153Z,49.99
2019-02-17T12:16:25.785Z,49.57
2019-02-17T12:19:15.511Z,47.86
2019-02-17T12:22:11.049Z,47.00
2019-02-17T12:25:05.029Z,48.34
2019-02-17T12:28:03.047Z,46.91
2019-02-17T12:30:52.353Z,47.59
2019-02-17T12:33:41.539Z,46.67
2019-02-17T12:36:30.814Z,46.78
2019-02-17T12:39:20.357Z,47.11
2019-02-17T12:42:09.837Z,46.15
2019-02-17T12:44:59.597Z,44.34
2019-02-17T12:47:57.493Z,43.44
2019-02-17T12:50:40.946Z,44.58
2019-02-17T12:53:30.283Z,44.17
2019-02-17T12:56:19.565Z,43.83
2019-02-17T12:59:09.232Z,45.38
2019-02-17T13:01:58.877Z,45.79
2019-02-17T13:04:48.613Z,46.79
2019-02-17T13:07:38.305Z,45.55
2019-02-17T13:10:27.584Z,45.09
2019-02-17T13:13:16.846Z,46.35
2019-02-17T13:16:06.154Z,43.50
2019-02-17T13:18:55.555Z,44.41
2019-02-17T13:21:44.907Z,44.50
2019-02-17T13:24:34.519Z,44.70
2019-02-17T13:27:25.248Z,45.06
2019-02-17T13:30:19.742Z,42.65
2019-02-17T13:33:09.565Z,42.28
2019-02-17T13:35:59.105Z,42.32
2019-02-17T13:38:48.596Z,41.59
2019-02-17T13:41:37.896Z,41.75
2019-02-17T13:44:27.803Z,40.60
2019-02-17T13:47:17.088Z,41.47
2019-02-17T13:50:07.786Z,40.26
2019-02-17T13:52:58.120Z,41.54
2019-02-17T13:55:47.733Z,40.80
2019-02-17T13:58:37.227Z,40.08
2019-02-17T14:01:26.744Z,40.43
2019-02-17T14:04:16.473Z,40.98
2019-02-17T14:07:06.308Z,42.20
2019-02-17T14:09:55.784Z,42.97
2019-02-17T14:12:45.316Z,42.17
2019-02-17T14:15:34.619Z,42.12
2019-02-17T14:18:25.994Z,42.06
2019-02-17T14:21:15.586Z,42.58
2019-02-17T14:24:04.878Z,41.94
2019-02-17T14:26:54.121Z,41.95
2019-02-17T14:29:43.454Z,42.72
2019-02-17T14:32:33.006Z,41.88
2019-02-17T14:35:22.565Z,41.88
2019-02-17T14:38:12.137Z,41.34
2019-02-17T14:41:01.484Z,41.79
2019-02-17T14:43:50.696Z,41.84
2019-02-17T14:46:40.041Z,42.40
2019-02-17T14:49:29.483Z,42.67
2019-02-17T14:52:19.148Z,42.98
2019-02-17T14:55:08.921Z,44.26
2019-02-17T14:58:05.485Z,44.68
2019-02-17T15:00:52.309Z,46.18
2019-02-17T15:03:41.584Z,46.59
2019-02-17T15:06:30.950Z,47.52
2019-02-17T15:09:20.457Z,47.03
2019-02-17T15:12:10.052Z,47.58
2019-02-17T15:14:59.602Z,48.17
2019-02-17T15:17:49.262Z,48.05
2019-02-17T15:20:38.559Z,49.39
2019-02-17T15:23:27.888Z,48.85
2019-02-17T15:26:17.446Z,49.56
2019-02-17T15:29:07.067Z,49.84
2019-02-17T15:31:56.697Z,49.68
2019-02-17T15:34:46.050Z,49.98
2019-02-17T15:37:35.628Z,50.75
2019-02-17T15:40:25.289Z,51.17
2019-02-17T15:43:14.888Z,51.80
2019-02-17T15:46:04.478Z,52.41
2019-02-17T15:48:54.165Z,52.66
2019-02-17T15:51:43.572Z,53.02
2019-02-17T15:54:32.982Z,52.79
2019-02-17T15:57:22.613Z,52.87
2019-02-17T16:00:13.123Z,53.18
2019-02-17T16:03:02.461Z,54.14
2019-02-17T16:05:52.013Z,54.14
2019-02-17T16:08:41.273Z,54.84
2019-02-17T16:11:31.125Z,55.35
2019-02-17T16:14:20.846Z,55.78
2019-02-17T16:17:10.111Z,56.87
2019-02-17T16:19:59.411Z,57.36
2019-02-17T16:22:48.956Z,57.91
2019-02-17T16:25:38.484Z,58.66
2019-02-17T16:28:27.735Z,59.63
2019-02-17T16:31:17.191Z,60.24
2019-02-17T16:34:06.643Z,60.21
2019-02-17T16:36:56.259Z,60.21
2019-02-17T16:39:45.695Z,61.58
2019-02-17T16:42:35.290Z,62.21
2019-02-17T16:45:24.578Z,62.77
2019-02-17T16:48:16.011Z,63.85
2019-02-17T16:51:05.787Z,64.81
2019-02-17T16:53:55.426Z,66.26
2019-02-17T16:56:44.729Z,67.18
2019-02-17T16:59:34.187Z,67.75
2019-02-17T17:02:23.756Z,68.67
2019-02-17T17:05:13.484Z,69.23
2019-02-17T17:08:03.240Z,69.23
2019-02-17T17:10:52.980Z,70.50
2019-02-17T17:13:42.534Z,71.48
2019-02-17T17:16:32.087Z,71.49
2019-02-17T17:19:22.455Z,72.31
2019-02-17T17:22:11.901Z,73.26
2019-02-17T17:25:01.540Z,73.56
2019-02-17T17:27:51.277Z,73.70
2019-02-17T17:30:40.928Z,75.15
2019-02-17T17:33:30.641Z,76.00
2019-02-17T17:36:20.422Z,76.05
2019-02-17T17:39:09.918Z,75.67
2019-02-17T17:42:02.435Z,76.39
2019-02-17T17:44:51.742Z,77.43
2019-02-17T17:47:41.007Z,77.73
2019-02-17T17:50:30.344Z,78.46
2019-02-17T17:53:19.949Z,78.17
2019-02-17T17:56:09.670Z,78.60
2019-02-17T17:58:58.938Z,79.00
2019-02-17T18:01:48.531Z,79.60
2019-02-17T18:04:37.897Z,80.64
2019-02-17T18:07:27.370Z,84.18
2019-02-17T18:10:17.457Z,84.16
2019-02-17T18:13:07.551Z,84.73
2019-02-17T18:15:56.924Z,85.21
2019-02-17T18:18:46.514Z,85.62
2019-02-17T18:21:36.210Z,85.95
2019-02-17T18:24:28.958Z,86.32
2019-02-17T18:27:18.420Z,85.74
2019-02-17T18:30:09.329Z,85.57
2019-02-17T18:32:58.689Z,85.36
2019-02-17T18:35:48.325Z,85.06
2019-02-17T18:38:38.175Z,85.23
2019-02-17T18:41:27.906Z,86.25
2019-02-17T18:44:17.527Z,86.45
2019-02-17T18:47:07.440Z,87.34
2019-02-17T18:49:56.949Z,87.34
2019-02-17T18:52:46.548Z,87.50
2019-02-17T18:55:36.101Z,87.06
2019-02-17T18:58:25.616Z,88.49
2019-02-17T19:01:15.325Z,88.27
2019-02-17T19:04:04.944Z,88.49
2019-02-17T19:06:54.227Z,88.76
2019-02-17T19:09:43.876Z,89.23
2019-02-17T19:12:33.260Z,89.67
2019-02-17T19:15:22.940Z,89.97
2019-02-17T19:18:12.834Z,89.70
2019-02-17T19:21:02.274Z,90.33
2019-02-17T19:23:51.960Z,90.31
2019-02-17T19:26:41.445Z,90.20
2019-02-17T19:29:30.918Z,90.09
2019-02-17T19:32:20.604Z,90.57
2019-02-17T19:35:11.483Z,91.04
2019-02-17T19:38:01.133Z,91.55
2019-02-17T19:40:50.922Z,91.56
2019-02-17T19:43:40.528Z,91.80
2019-02-17T19:46:29.727Z,92.03
2019-02-17T19:49:19.076Z,92.14
2019-02-17T19:52:08.628Z,92.45
2019-02-17T19:54:57.995Z,92.99
2019-02-17T19:57:47.777Z,93.57
2019-02-17T20:00:37.494Z,93.43
2019-02-17T20:03:48.495Z,93.18
2019-02-17T20:06:38.977Z,93.50
2019-02-17T20:09:28.785Z,93.89
2019-02-17T20:12:18.348Z,95.61
2019-02-17T20:15:08.003Z,95.89
2019-02-17T20:17:57.549Z,95.44
2019-02-17T20:20:46.921Z,94.61
2019-02-17T20:23:36.330Z,94.24
2019-02-17T20:26:26.231Z,94.18
2019-02-17T20:29:15.578Z,94.32
2019-02-17T20:32:05.000Z,94.91
2019-02-17T20:34:54.573Z,96.21
2019-02-17T20:37:44.030Z,96.50
2019-02-17T20:40:33.753Z,96.59
2019-02-17T20:43:23.410Z,96.79
2019-02-17T20:46:12.926Z,97.15
2019-02-17T20:49:02.400Z,97.16
2019-02-17T20:51:52.137Z,97.17
2019-02-17T20:54:41.655Z,97.48
2019-02-17T20:57:31.001Z,97.32
2019-02-17T21:00:22.820Z,97.24
2019-02-17T21:03:13.105Z,97.28
2019-02-17T21:06:12.234Z,97.33
2019-02-17T21:08:54.004Z,97.35
2019-02-17T21:11:43.812Z,97.35
2019-02-17T21:14:33.110Z,97.57
2019-02-17T21:17:22.431Z,97.59
2019-02-17T21:20:13.715Z,97.88
2019-02-17T21:23:03.384Z,98.22
2019-02-17T21:25:52.944Z,98.33
2019-02-17T21:28:42.587Z,98.27
2019-02-17T21:31:34.074Z,98.44
2019-02-17T21:34:23.688Z,98.56
2019-02-17T21:37:13.044Z,98.56
2019-02-17T21:40:02.443Z,98.80
2019-02-17T21:42:51.758Z,98.94
2019-02-17T21:45:41.326Z,99.20
2019-02-17T21:48:30.863Z,99.20
2019-02-17T21:51:20.245Z,99.24
2019-02-17T21:54:09.607Z,99.49
2019-02-17T21:56:59.187Z,99.74
2019-02-17T21:59:48.831Z,99.81
2019-02-17T22:02:38.405Z,99.73
2019-02-17T22:05:27.981Z,99.78
2019-02-17T22:08:17.352Z,99.79
2019-02-17T22:11:07.981Z,100.00
2019-02-17T22:13:57.849Z,100.00
2019-02-17T22:16:47.149Z,100.00
2019-02-17T22:19:36.799Z,100.00
2019-02-17T22:22:26.464Z,99.79
2019-02-17T22:25:15.899Z,99.81
2019-02-17T22:28:05.481Z,100.00
2019-02-17T22:30:56.629Z,100.00
2019-02-17T22:33:46.040Z,100.00
2019-02-17T22:36:43.527Z,100.00
2019-02-17T22:39:26.330Z,100.00
2019-02-17T22:42:15.963Z,100.00
2019-02-17T22:45:05.560Z,100.00
2019-02-17T22:47:54.925Z,100.00
2019-02-17T22:50:44.256Z,100.00
2019-02-17T22:53:43.079Z,100.00
2019-02-17T22:56:25.106Z,100.00
2019-02-17T22:59:14.563Z,100.00
2019-02-17T23:02:04.465Z,100.00
2019-02-17T23:04:54.030Z,100.00
2019-02-17T23:07:43.606Z,100.00
2019-02-17T23:10:33.374Z,100.00
2019-02-17T23:13:22.952Z,100.00
2019-02-17T23:16:12.630Z,100.00
2019-02-17T23:19:01.968Z,100.00
2019-02-17T23:21:53.237Z,100.00
2019-02-17T23:24:42.843Z,100.00
2019-02-17T23:27:32.218Z,100.00
2019-02-17T23:30:21.521Z,100.00
2019-02-17T23:33:10.923Z,100.00
2019-02-17T23:36:00.749Z,100.00
2019-02-17T23:38:51.578Z,100.00
2019-02-17T23:41:41.332Z,100.00
2019-02-17T23:44:30.939Z,100.00
2019-02-17T23:47:20.507Z,100.00
2019-02-17T23:50:09.714Z,100.00
2019-02-17T23:52:58.975Z,100.00
2019-02-17T23:55:48.479Z,100.00
2019-02-17T23:58:37.938Z,100.00
